createdAt,value
2017-08-14T00:00:00.073Z,0
2017-08-14T00:01:12.652Z,0
2017-08-14T00:02:25.301Z,0
2017-08-14T00:03:37.897Z,0
2017-08-14T00:04:50.514Z,0
2017-08-14T00:06:03.077Z,0
2017-08-14T00:07:15.624Z,0
2017-08-14T00:08:27.631Z,0
2017-08-14T00:09:40.291Z,0
2017-08-14T00:10:52.563Z,0
2017-08-14T00:12:05.116Z,0
2017-08-14T00:13:18.020Z,0
2017-08-14T00:14:30.341Z,0
2017-08-14T00:15:42.922Z,0
2017-08-14T00:16:55.525Z,0
2017-08-14T00:18:08.149Z,0
2017-08-14T00:19:20.413Z,0
2017-08-14T00:20:33.049Z,0
2017-08-14T00:21:45.599Z,0
2017-08-14T00:22:58.203Z,0
2017-08-14T00:24:10.767Z,0
2017-08-14T00:25:22.763Z,0
2017-08-14T00:26:35.312Z,0
2017-08-14T00:27:47.633Z,0
2017-08-14T00:29:00.228Z,0
2017-08-14T00:30:12.846Z,0
2017-08-14T00:31:25.124Z,0
2017-08-14T00:32:37.713Z,0
2017-08-14T00:33:50.037Z,0
2017-08-14T00:35:02.721Z,0
2017-08-14T00:36:15.279Z,0
2017-08-14T00:37:27.244Z,0
2017-08-14T00:38:39.527Z,0
2017-08-14T00:39:51.464Z,0
2017-08-14T00:41:04.009Z,0
2017-08-14T00:42:16.281Z,0
2017-08-14T00:43:28.830Z,0
2017-08-14T00:44:41.112Z,0
2017-08-14T00:45:53.743Z,0
2017-08-14T00:47:05.953Z,0
2017-08-14T00:48:18.544Z,0
2017-08-14T00:49:30.888Z,0
2017-08-14T00:50:43.451Z,0
2017-08-14T00:51:56.030Z,0
2017-08-14T00:53:08.594Z,0
2017-08-14T00:54:21.150Z,0
2017-08-14T00:55:33.759Z,0
2017-08-14T00:56:46.098Z,0
2017-08-14T00:57:58.702Z,0
2017-08-14T00:59:10.906Z,0
2017-08-14T01:00:23.199Z,0
2017-08-14T01:01:35.757Z,0
2017-08-14T01:02:48.052Z,0
2017-08-14T01:04:00.631Z,0
2017-08-14T01:05:13.232Z,0
2017-08-14T01:06:25.192Z,0
2017-08-14T01:07:37.772Z,0
2017-08-14T01:08:50.368Z,0
2017-08-14T01:10:02.997Z,0
2017-08-14T01:11:15.619Z,0
2017-08-14T01:12:28.220Z,0
2017-08-14T01:13:40.498Z,0
2017-08-14T01:14:53.144Z,0
2017-08-14T01:16:05.751Z,0
2017-08-14T01:17:18.347Z,0
2017-08-14T01:18:30.711Z,0
2017-08-14T01:19:43.314Z,0
2017-08-14T01:20:55.899Z,0
2017-08-14T01:22:08.498Z,0
2017-08-14T01:23:21.041Z,0
2017-08-14T01:24:33.692Z,0
2017-08-14T01:25:46.343Z,0
2017-08-14T01:26:58.634Z,0
2017-08-14T01:28:11.225Z,0
2017-08-14T01:29:23.477Z,0
2017-08-14T01:30:36.091Z,0
2017-08-14T01:31:47.799Z,0
2017-08-14T01:33:00.461Z,0
2017-08-14T01:34:13.046Z,0
2017-08-14T01:35:25.024Z,0
2017-08-14T01:36:37.271Z,0
2017-08-14T01:37:49.534Z,0
2017-08-14T01:39:02.151Z,0
2017-08-14T01:40:14.451Z,0
2017-08-14T01:41:27.012Z,0
2017-08-14T01:42:39.609Z,0
2017-08-14T01:43:52.171Z,0
2017-08-14T01:45:04.740Z,0
2017-08-14T01:46:17.224Z,0
2017-08-14T01:47:29.510Z,0
2017-08-14T01:48:42.156Z,0
2017-08-14T01:49:54.112Z,0
2017-08-14T01:51:06.421Z,0
2017-08-14T01:52:19.029Z,0
2017-08-14T01:53:31.339Z,0
2017-08-14T01:54:43.970Z,0
2017-08-14T01:55:56.286Z,0
2017-08-14T01:57:08.664Z,0
2017-08-14T01:58:21.213Z,0
2017-08-14T01:59:33.461Z,0
2017-08-14T02:00:45.966Z,0
2017-08-14T02:01:58.546Z,0
2017-08-14T02:03:11.156Z,0
2017-08-14T02:04:23.776Z,0
2017-08-14T02:05:36.354Z,0
2017-08-14T02:06:48.967Z,0
2017-08-14T02:08:01.241Z,0
2017-08-14T02:09:13.553Z,0
2017-08-14T02:10:26.131Z,0
2017-08-14T02:11:38.681Z,0
2017-08-14T02:12:51.204Z,0
2017-08-14T02:14:03.548Z,0
2017-08-14T02:15:16.122Z,0
2017-08-14T02:16:28.691Z,0
2017-08-14T02:17:41.264Z,0
2017-08-14T02:18:53.857Z,0
2017-08-14T02:20:06.479Z,0
2017-08-14T02:21:18.800Z,0
2017-08-14T02:22:31.072Z,0
2017-08-14T02:23:43.346Z,0
2017-08-14T02:24:55.936Z,0
2017-08-14T02:26:08.506Z,0
2017-08-14T02:27:20.811Z,0
2017-08-14T02:28:33.134Z,0
2017-08-14T02:29:45.722Z,0
2017-08-14T02:30:58.323Z,0
2017-08-14T02:32:10.950Z,0
2017-08-14T02:33:23.527Z,0
2017-08-14T02:34:36.024Z,0
2017-08-14T02:35:48.557Z,0
2017-08-14T02:37:01.118Z,0
2017-08-14T02:38:13.712Z,0
2017-08-14T02:39:26.263Z,0
2017-08-14T02:40:38.858Z,0
2017-08-14T02:41:50.857Z,0
2017-08-14T02:43:03.432Z,0
2017-08-14T02:44:16.060Z,0
2017-08-14T02:45:28.293Z,0
2017-08-14T02:46:40.859Z,0
2017-08-14T02:47:53.455Z,0
2017-08-14T02:49:06.032Z,0
2017-08-14T02:50:18.577Z,0
2017-08-14T02:51:31.148Z,0
2017-08-14T02:52:43.692Z,0
2017-08-14T02:53:56.272Z,0
2017-08-14T02:55:08.531Z,0
2017-08-14T02:56:21.114Z,0
2017-08-14T02:57:33.748Z,0
2017-08-14T02:58:46.033Z,0
2017-08-14T02:59:58.276Z,0
2017-08-14T03:01:10.834Z,0
2017-08-14T03:02:23.655Z,0
2017-08-14T03:03:36.294Z,0
2017-08-14T03:04:48.897Z,0
2017-08-14T03:06:01.422Z,0
2017-08-14T03:07:13.674Z,0
2017-08-14T03:08:26.291Z,0
2017-08-14T03:09:38.866Z,0
2017-08-14T03:10:51.514Z,4
2017-08-14T03:12:04.074Z,0
2017-08-14T03:13:16.595Z,0
2017-08-14T03:14:29.138Z,4
2017-08-14T03:15:41.393Z,4
2017-08-14T03:16:53.937Z,4
2017-08-14T03:18:06.189Z,4
2017-08-14T03:19:18.829Z,8
2017-08-14T03:20:31.412Z,8
2017-08-14T03:21:43.971Z,12
2017-08-14T03:22:56.597Z,12
2017-08-14T03:24:09.242Z,12
2017-08-14T03:25:21.294Z,20
2017-08-14T03:26:33.584Z,20
2017-08-14T03:27:45.870Z,28
2017-08-14T03:28:58.522Z,32
2017-08-14T03:30:10.791Z,40
2017-08-14T03:31:23.089Z,48
2017-08-14T03:32:35.653Z,56
2017-08-14T03:33:48.200Z,64
2017-08-14T03:35:00.799Z,76
2017-08-14T03:36:13.384Z,88
2017-08-14T03:37:25.967Z,100
2017-08-14T03:38:38.494Z,116
2017-08-14T03:39:51.089Z,128
2017-08-14T03:41:03.736Z,152
2017-08-14T03:42:16.345Z,172
2017-08-14T03:43:28.278Z,192
2017-08-14T03:44:40.912Z,216
2017-08-14T03:45:53.145Z,236
2017-08-14T03:47:05.804Z,268
2017-08-14T03:48:18.327Z,300
2017-08-14T03:49:30.896Z,336
2017-08-14T03:50:43.193Z,368
2017-08-14T03:51:55.739Z,408
2017-08-14T03:53:08.340Z,448
2017-08-14T03:54:20.604Z,488
2017-08-14T03:55:32.862Z,528
2017-08-14T03:56:45.495Z,560
2017-08-14T03:57:58.128Z,588
2017-08-14T03:59:10.468Z,620
2017-08-14T04:00:22.764Z,652
2017-08-14T04:01:35.049Z,692
2017-08-14T04:02:47.025Z,736
2017-08-14T04:03:59.328Z,784
2017-08-14T04:05:11.916Z,828
2017-08-14T04:06:24.517Z,888
2017-08-14T04:07:37.128Z,952
2017-08-14T04:08:49.717Z,1028
2017-08-14T04:10:02.034Z,1100
2017-08-14T04:11:14.600Z,1156
2017-08-14T04:12:27.243Z,1216
2017-08-14T04:13:39.814Z,1268
2017-08-14T04:14:52.071Z,1328
2017-08-14T04:16:04.388Z,1392
2017-08-14T04:17:16.671Z,1468
2017-08-14T04:18:28.978Z,1532
2017-08-14T04:19:41.324Z,1592
2017-08-14T04:20:53.926Z,1644
2017-08-14T04:22:06.235Z,1700
2017-08-14T04:23:18.208Z,1756
2017-08-14T04:24:30.489Z,1812
2017-08-14T04:25:43.110Z,1864
2017-08-14T04:26:55.681Z,1936
2017-08-14T04:28:08.046Z,2040
2017-08-14T04:29:20.642Z,2152
2017-08-14T04:30:32.918Z,2280
2017-08-14T04:31:45.171Z,2412
2017-08-14T04:32:57.749Z,2532
2017-08-14T04:34:10.368Z,2640
2017-08-14T04:35:22.346Z,2720
2017-08-14T04:36:34.611Z,2736
2017-08-14T04:37:46.868Z,2728
2017-08-14T04:38:58.864Z,2760
2017-08-14T04:40:11.461Z,2876
2017-08-14T04:41:23.782Z,3044
2017-08-14T04:42:36.366Z,3200
2017-08-14T04:43:48.342Z,3336
2017-08-14T04:45:01.190Z,3472
2017-08-14T04:46:13.811Z,3548
2017-08-14T04:47:26.101Z,3640
2017-08-14T04:48:38.671Z,3664
2017-08-14T04:49:50.953Z,3696
2017-08-14T04:51:03.538Z,3732
2017-08-14T04:52:15.764Z,3808
2017-08-14T04:53:27.764Z,3844
2017-08-14T04:54:40.038Z,3828
2017-08-14T04:55:52.299Z,3820
2017-08-14T04:57:04.592Z,3856
2017-08-14T04:58:17.174Z,3900
2017-08-14T04:59:29.735Z,3888
2017-08-14T05:00:42.305Z,3828
2017-08-14T05:01:54.585Z,3804
2017-08-14T05:03:07.178Z,3832
2017-08-14T05:04:19.778Z,3872
2017-08-14T05:05:32.374Z,3920
2017-08-14T05:06:44.936Z,3984
2017-08-14T05:07:57.487Z,4052
2017-08-14T05:09:10.031Z,4124
2017-08-14T05:10:22.608Z,4192
2017-08-14T05:11:35.226Z,4244
2017-08-14T05:12:47.466Z,4284
2017-08-14T05:13:59.477Z,4320
2017-08-14T05:15:11.788Z,4360
2017-08-14T05:16:24.095Z,4400
2017-08-14T05:17:36.350Z,4440
2017-08-14T05:18:48.898Z,4492
2017-08-14T05:20:01.466Z,4536
2017-08-14T05:21:14.071Z,4568
2017-08-14T05:22:26.332Z,4592
2017-08-14T05:23:38.610Z,4628
2017-08-14T05:24:50.924Z,4668
2017-08-14T05:26:03.169Z,4720
2017-08-14T05:27:15.777Z,4772
2017-08-14T05:28:28.397Z,4824
2017-08-14T05:29:40.688Z,4884
2017-08-14T05:30:53.254Z,4952
2017-08-14T05:32:05.856Z,5024
2017-08-14T05:33:18.431Z,5076
2017-08-14T05:34:31.046Z,5116
2017-08-14T05:35:43.622Z,5140
2017-08-14T05:36:55.893Z,5152
2017-08-14T05:38:07.553Z,5168
2017-08-14T05:39:20.137Z,5200
2017-08-14T05:40:32.389Z,5228
2017-08-14T05:41:44.739Z,5272
2017-08-14T05:42:57.337Z,5332
2017-08-14T05:44:09.584Z,5380
2017-08-14T05:45:22.183Z,5436
2017-08-14T05:46:34.749Z,5484
2017-08-14T05:47:46.732Z,5544
2017-08-14T05:48:59.353Z,5596
2017-08-14T05:50:11.699Z,5644
2017-08-14T05:51:24.319Z,5704
2017-08-14T05:52:36.330Z,5772
2017-08-14T05:53:47.961Z,5840
2017-08-14T05:55:00.523Z,5892
2017-08-14T05:56:13.128Z,5936
2017-08-14T05:57:25.340Z,6160
2017-08-14T05:58:37.609Z,6464
2017-08-14T05:59:50.161Z,7572
2017-08-14T06:01:02.783Z,8712
2017-08-14T06:02:15.373Z,8592
2017-08-14T06:03:27.634Z,6612
2017-08-14T06:04:39.590Z,5984
2017-08-14T06:05:52.171Z,6064
2017-08-14T06:07:04.812Z,6204
2017-08-14T06:08:17.432Z,6256
2017-08-14T06:09:29.997Z,6488
2017-08-14T06:10:42.594Z,6872
2017-08-14T06:11:55.167Z,6524
2017-08-14T06:13:07.463Z,6536
2017-08-14T06:14:20.011Z,6544
2017-08-14T06:15:32.583Z,6736
2017-08-14T06:16:45.229Z,6748
2017-08-14T06:17:57.794Z,6828
2017-08-14T06:19:10.082Z,7012
2017-08-14T06:20:22.670Z,7132
2017-08-14T06:21:34.937Z,7288
2017-08-14T06:22:46.931Z,7772
2017-08-14T06:23:59.254Z,8384
2017-08-14T06:25:11.555Z,10284
2017-08-14T06:26:24.208Z,15112
2017-08-14T06:27:36.559Z,37088
2017-08-14T06:28:48.310Z,45952
2017-08-14T06:30:00.889Z,44352
2017-08-14T06:31:13.506Z,45632
2017-08-14T06:32:26.081Z,44768
2017-08-14T06:33:38.372Z,42304
2017-08-14T06:34:50.998Z,42272
2017-08-14T06:36:03.607Z,41088
2017-08-14T06:37:16.184Z,40832
2017-08-14T06:38:28.705Z,40992
2017-08-14T06:39:40.977Z,42208
2017-08-14T06:40:53.566Z,43328
2017-08-14T06:42:06.189Z,44000
2017-08-14T06:43:18.738Z,39680
2017-08-14T06:44:31.355Z,33824
2017-08-14T06:45:43.900Z,26432
2017-08-14T06:46:56.472Z,22464
2017-08-14T06:48:09.109Z,19232
2017-08-14T06:49:21.680Z,17064
2017-08-14T06:50:34.289Z,16368
2017-08-14T06:51:46.891Z,16000
2017-08-14T06:52:59.549Z,15620
2017-08-14T06:54:11.794Z,15476
2017-08-14T06:55:24.078Z,15528
2017-08-14T06:56:36.379Z,15604
2017-08-14T06:57:48.333Z,15692
2017-08-14T06:59:00.880Z,15640
2017-08-14T07:00:13.255Z,15792
2017-08-14T07:01:25.600Z,16428
2017-08-14T07:02:38.241Z,17576
2017-08-14T07:03:50.516Z,19328
2017-08-14T07:05:03.165Z,21440
2017-08-14T07:06:14.861Z,24640
2017-08-14T07:07:27.187Z,28896
2017-08-14T07:08:39.523Z,32736
2017-08-14T07:09:51.792Z,39040
2017-08-14T07:11:03.451Z,42464
2017-08-14T07:12:15.710Z,43904
2017-08-14T07:13:27.692Z,49120
2017-08-14T07:14:39.957Z,50816
2017-08-14T07:15:52.198Z,48480
2017-08-14T07:17:04.500Z,47296
2017-08-14T07:18:17.115Z,48544
2017-08-14T07:19:29.685Z,47840
2017-08-14T07:20:41.942Z,45600
2017-08-14T07:21:53.934Z,48928
2017-08-14T07:23:06.323Z,50240
2017-08-14T07:24:18.269Z,49664
2017-08-14T07:25:30.566Z,48992
2017-08-14T07:26:43.167Z,51744
2017-08-14T07:27:55.781Z,52576
2017-08-14T07:29:08.430Z,53024
2017-08-14T07:30:20.500Z,51840
2017-08-14T07:31:33.047Z,50816
2017-08-14T07:32:45.339Z,57024
2017-08-14T07:33:57.952Z,55232
2017-08-14T07:35:09.998Z,56096
2017-08-14T07:36:22.439Z,55648
2017-08-14T07:37:34.435Z,54560
2017-08-14T07:38:46.980Z,52736
2017-08-14T07:39:59.217Z,53344
2017-08-14T07:41:11.816Z,55136
2017-08-14T07:42:24.435Z,55968
2017-08-14T07:43:37.071Z,59008
2017-08-14T07:44:49.673Z,61216
2017-08-14T07:46:01.985Z,61280
2017-08-14T07:47:14.291Z,58688
2017-08-14T07:48:26.888Z,59232
2017-08-14T07:49:39.457Z,60512
2017-08-14T07:50:51.434Z,60992
2017-08-14T07:52:03.975Z,60736
2017-08-14T07:53:16.320Z,61408
2017-08-14T07:54:28.572Z,61888
2017-08-14T07:55:41.150Z,60384
2017-08-14T07:56:53.858Z,58624
2017-08-14T07:58:06.156Z,59296
2017-08-14T07:59:18.726Z,59712
2017-08-14T08:00:31.049Z,58688
2017-08-14T08:01:43.345Z,59840
2017-08-14T08:02:55.565Z,59072
2017-08-14T08:04:08.109Z,59008
2017-08-14T08:05:20.672Z,58720
2017-08-14T08:06:32.952Z,59776
2017-08-14T08:07:44.947Z,61376
2017-08-14T08:08:57.554Z,62144
2017-08-14T08:10:10.214Z,61664
2017-08-14T08:11:22.867Z,59616
2017-08-14T08:12:35.468Z,61184
2017-08-14T08:13:48.103Z,62272
2017-08-14T08:15:00.076Z,33536
2017-08-14T08:16:12.105Z,11036
2017-08-14T08:17:24.718Z,11420
2017-08-14T08:18:37.322Z,11760
2017-08-14T08:19:49.361Z,11688
2017-08-14T08:21:01.644Z,11312
2017-08-14T08:22:14.004Z,11408
2017-08-14T08:23:25.994Z,11988
2017-08-14T08:24:37.988Z,12240
2017-08-14T08:25:50.585Z,11916
2017-08-14T08:27:02.583Z,11996
2017-08-14T08:28:15.228Z,12464
2017-08-14T08:29:27.259Z,13032
2017-08-14T08:30:39.218Z,14236
2017-08-14T08:31:51.502Z,15108
2017-08-14T08:33:03.839Z,15940
2017-08-14T08:34:16.450Z,15508
2017-08-14T08:35:29.028Z,14948
2017-08-14T08:36:41.341Z,14124
2017-08-14T08:37:53.011Z,13472
2017-08-14T08:39:04.977Z,13736
2017-08-14T08:40:17.580Z,13180
2017-08-14T08:41:29.868Z,13012
2017-08-14T08:42:42.179Z,14104
2017-08-14T08:43:54.761Z,14308
2017-08-14T08:45:07.397Z,15076
2017-08-14T08:46:19.643Z,15424
2017-08-14T08:47:31.912Z,15748
2017-08-14T08:48:44.520Z,17440
2017-08-14T08:49:56.839Z,18752
2017-08-14T08:51:09.462Z,21120
2017-08-14T08:52:21.483Z,19936
2017-08-14T08:53:33.792Z,19648
2017-08-14T08:54:46.363Z,18496
2017-08-14T08:55:59.032Z,20000
2017-08-14T08:57:11.630Z,20288
2017-08-14T08:58:23.908Z,19168
2017-08-14T08:59:36.540Z,18176
2017-08-14T09:00:48.810Z,18368
2017-08-14T09:02:01.440Z,20192
2017-08-14T09:03:14.061Z,20224
2017-08-14T09:04:25.781Z,18816
2017-08-14T09:05:38.369Z,18592
2017-08-14T09:06:50.358Z,17680
2017-08-14T09:08:02.952Z,18144
2017-08-14T09:09:15.541Z,19072
2017-08-14T09:10:28.111Z,20512
2017-08-14T09:11:40.362Z,20960
2017-08-14T09:12:52.277Z,21312
2017-08-14T09:14:04.895Z,20768
2017-08-14T09:15:17.418Z,20384
2017-08-14T09:16:29.472Z,19840
2017-08-14T09:17:41.470Z,20160
2017-08-14T09:18:53.435Z,20672
2017-08-14T09:20:06.044Z,21408
2017-08-14T09:21:18.324Z,21536
2017-08-14T09:22:30.625Z,21024
2017-08-14T09:23:43.250Z,21344
2017-08-14T09:24:55.542Z,21184
2017-08-14T09:26:08.168Z,21184
2017-08-14T09:27:20.834Z,21824
2017-08-14T09:28:33.498Z,21664
2017-08-14T09:29:45.770Z,22080
2017-08-14T09:30:58.059Z,22112
2017-08-14T09:32:10.741Z,22272
2017-08-14T09:33:23.373Z,21792
2017-08-14T09:34:36.004Z,20192
2017-08-14T09:35:48.262Z,19104
2017-08-14T09:37:00.871Z,17804
2017-08-14T09:38:13.468Z,16888
2017-08-14T09:39:25.720Z,17244
2017-08-14T09:40:37.765Z,17312
2017-08-14T09:41:50.347Z,16628
2017-08-14T09:43:02.625Z,15988
2017-08-14T09:44:14.588Z,15188
2017-08-14T09:45:26.616Z,14144
2017-08-14T09:46:39.198Z,14096
2017-08-14T09:47:51.215Z,15300
2017-08-14T09:49:03.434Z,16104
2017-08-14T09:50:15.742Z,15472
2017-08-14T09:51:28.013Z,15120
2017-08-14T09:52:40.284Z,14728
2017-08-14T09:53:52.986Z,14664
2017-08-14T09:55:05.304Z,15348
2017-08-14T09:56:17.915Z,15760
2017-08-14T09:57:29.901Z,16088
2017-08-14T09:58:41.835Z,17180
2017-08-14T09:59:54.168Z,18208
2017-08-14T10:01:06.767Z,17952
2017-08-14T10:02:19.340Z,17068
2017-08-14T10:03:31.312Z,48736
2017-08-14T10:04:43.616Z,74624
2017-08-14T10:05:55.879Z,75840
2017-08-14T10:07:07.568Z,44128
2017-08-14T10:08:19.539Z,17444
2017-08-14T10:09:31.514Z,36736
2017-08-14T10:10:43.464Z,71488
2017-08-14T10:11:55.755Z,73408
2017-08-14T10:13:08.049Z,52096
2017-08-14T10:14:20.719Z,32864
2017-08-14T10:15:32.974Z,52480
2017-08-14T10:16:45.278Z,73408
2017-08-14T10:17:57.561Z,65472
2017-08-14T10:19:10.153Z,36480
2017-08-14T10:20:22.398Z,15584
2017-08-14T10:21:34.070Z,22752
2017-08-14T10:22:46.350Z,42304
2017-08-14T10:23:58.762Z,41184
2017-08-14T10:25:10.761Z,17844
2017-08-14T10:26:23.381Z,23712
2017-08-14T10:27:35.985Z,15360
2017-08-14T10:28:48.037Z,14780
2017-08-14T10:30:00.777Z,15192
2017-08-14T10:31:13.116Z,16292
2017-08-14T10:32:25.438Z,17104
2017-08-14T10:33:37.710Z,67520
2017-08-14T10:34:50.052Z,79040
2017-08-14T10:36:02.338Z,74240
2017-08-14T10:37:15.005Z,72352
2017-08-14T10:38:26.990Z,72320
2017-08-14T10:39:39.308Z,69824
2017-08-14T10:40:51.315Z,70528
2017-08-14T10:42:03.935Z,72736
2017-08-14T10:43:15.650Z,73920
2017-08-14T10:44:28.317Z,74176
2017-08-14T10:45:40.938Z,77216
2017-08-14T10:46:53.510Z,78560
2017-08-14T10:48:05.836Z,79232
2017-08-14T10:49:18.505Z,76832
2017-08-14T10:50:30.525Z,74656
2017-08-14T10:51:43.173Z,74592
2017-08-14T10:52:55.480Z,11772
2017-08-14T10:54:07.790Z,10880
2017-08-14T10:55:20.067Z,12296
2017-08-14T10:56:32.368Z,11392
2017-08-14T10:57:44.698Z,13388
2017-08-14T10:58:57.265Z,39808
2017-08-14T11:00:09.569Z,23232
2017-08-14T11:01:22.161Z,17416
2017-08-14T11:02:34.112Z,73152
2017-08-14T11:03:46.386Z,22496
2017-08-14T11:04:58.655Z,60768
2017-08-14T11:06:10.945Z,74624
2017-08-14T11:07:23.243Z,76256
2017-08-14T11:08:35.322Z,58624
2017-08-14T11:09:47.667Z,12692
2017-08-14T11:11:00.011Z,12480
2017-08-14T11:12:12.346Z,44320
2017-08-14T11:13:24.329Z,75776
2017-08-14T11:14:36.596Z,74208
2017-08-14T11:15:49.240Z,35072
2017-08-14T11:17:01.871Z,47840
2017-08-14T11:18:14.228Z,74112
2017-08-14T11:19:26.859Z,30304
2017-08-14T11:20:39.222Z,48096
2017-08-14T11:21:51.818Z,72896
2017-08-14T11:23:04.138Z,14304
2017-08-14T11:24:16.461Z,11808
2017-08-14T11:25:28.735Z,10968
2017-08-14T11:26:41.324Z,22016
2017-08-14T11:27:53.548Z,72992
2017-08-14T11:29:06.208Z,72512
2017-08-14T11:30:18.804Z,65344
2017-08-14T11:31:30.539Z,67744
2017-08-14T11:32:42.891Z,68800
2017-08-14T11:33:54.905Z,66496
2017-08-14T11:35:07.520Z,66752
2017-08-14T11:36:20.102Z,69568
2017-08-14T11:37:32.418Z,70752
2017-08-14T11:38:44.708Z,69888
2017-08-14T11:39:57.281Z,70016
2017-08-14T11:41:09.923Z,71424
2017-08-14T11:42:22.521Z,59744
2017-08-14T11:43:34.815Z,55424
2017-08-14T11:44:46.792Z,70848
2017-08-14T11:45:58.483Z,15540
2017-08-14T11:47:11.031Z,23904
2017-08-14T11:48:23.311Z,19072
2017-08-14T11:49:35.598Z,70496
2017-08-14T11:50:47.843Z,13032
2017-08-14T11:51:59.906Z,11780
2017-08-14T11:53:12.494Z,19744
2017-08-14T11:54:24.828Z,72160
2017-08-14T11:55:37.109Z,68768
2017-08-14T11:56:49.076Z,68640
2017-08-14T11:58:01.385Z,70816
2017-08-14T11:59:13.950Z,68768
2017-08-14T12:00:26.569Z,66304
2017-08-14T12:01:38.643Z,67520
2017-08-14T12:02:51.278Z,70144
2017-08-14T12:04:03.851Z,69120
2017-08-14T12:05:16.419Z,70176
2017-08-14T12:06:28.706Z,15476
2017-08-14T12:07:41.340Z,12776
2017-08-14T12:08:53.648Z,12452
2017-08-14T12:10:06.263Z,13688
2017-08-14T12:11:18.859Z,15472
2017-08-14T12:12:30.868Z,20544
2017-08-14T12:13:43.115Z,15224
2017-08-14T12:14:55.446Z,28128
2017-08-14T12:16:07.774Z,52352
2017-08-14T12:17:20.327Z,69376
2017-08-14T12:18:32.602Z,71520
2017-08-14T12:19:44.586Z,69024
2017-08-14T12:20:57.158Z,12488
2017-08-14T12:22:09.490Z,12516
2017-08-14T12:23:21.788Z,12600
2017-08-14T12:24:34.103Z,15296
2017-08-14T12:25:46.698Z,58560
2017-08-14T12:26:58.772Z,70816
2017-08-14T12:28:11.102Z,70368
2017-08-14T12:29:23.440Z,70880
2017-08-14T12:30:35.757Z,68992
2017-08-14T12:31:48.095Z,66944
2017-08-14T12:33:00.387Z,22048
2017-08-14T12:34:13.021Z,20288
2017-08-14T12:35:24.695Z,22560
2017-08-14T12:36:36.962Z,67808
2017-08-14T12:37:49.258Z,66368
2017-08-14T12:39:01.278Z,16652
2017-08-14T12:40:13.581Z,12544
2017-08-14T12:41:25.855Z,13628
2017-08-14T12:42:38.453Z,10868
2017-08-14T12:43:51.080Z,10156
2017-08-14T12:45:03.097Z,11280
2017-08-14T12:46:15.765Z,23488
2017-08-14T12:47:27.801Z,24928
2017-08-14T12:48:39.807Z,16304
2017-08-14T12:49:52.450Z,69728
2017-08-14T12:51:03.849Z,17780
2017-08-14T12:52:16.215Z,18144
2017-08-14T12:53:28.786Z,64960
2017-08-14T12:54:41.403Z,33024
2017-08-14T12:55:53.646Z,51008
2017-08-14T12:57:05.935Z,62016
2017-08-14T12:58:18.227Z,13364
2017-08-14T12:59:30.510Z,12708
2017-08-14T13:00:42.767Z,12420
2017-08-14T13:01:55.051Z,12400
2017-08-14T13:03:07.704Z,13100
2017-08-14T13:04:20.287Z,13556
2017-08-14T13:05:32.621Z,13808
2017-08-14T13:06:44.586Z,13984
2017-08-14T13:07:57.224Z,13788
2017-08-14T13:09:09.776Z,13920
2017-08-14T13:10:22.046Z,17728
2017-08-14T13:11:33.722Z,62080
2017-08-14T13:12:45.750Z,62560
2017-08-14T13:13:58.110Z,62560
2017-08-14T13:15:10.143Z,65152
2017-08-14T13:16:22.502Z,65088
2017-08-14T13:17:34.802Z,61344
2017-08-14T13:18:47.398Z,59840
2017-08-14T13:19:59.390Z,60576
2017-08-14T13:21:11.936Z,58784
2017-08-14T13:22:24.543Z,15592
2017-08-14T13:23:37.178Z,14428
2017-08-14T13:24:48.835Z,12084
2017-08-14T13:26:01.492Z,12072
2017-08-14T13:27:13.785Z,48032
2017-08-14T13:28:26.062Z,12668
2017-08-14T13:29:38.735Z,12256
2017-08-14T13:30:50.732Z,11884
2017-08-14T13:32:03.357Z,11208
2017-08-14T13:33:15.626Z,11108
2017-08-14T13:34:27.672Z,12144
2017-08-14T13:35:40.241Z,12908
2017-08-14T13:36:52.231Z,13188
2017-08-14T13:38:04.840Z,13300
2017-08-14T13:39:17.125Z,20480
2017-08-14T13:40:29.389Z,31968
2017-08-14T13:41:41.965Z,16084
2017-08-14T13:42:53.913Z,15332
2017-08-14T13:44:06.518Z,14908
2017-08-14T13:45:18.461Z,14416
2017-08-14T13:46:30.150Z,14552
2017-08-14T13:47:42.825Z,14664
2017-08-14T13:48:55.418Z,14820
2017-08-14T13:50:07.389Z,15168
2017-08-14T13:51:19.971Z,15440
2017-08-14T13:52:32.295Z,15004
2017-08-14T13:53:43.982Z,14984
2017-08-14T13:54:56.272Z,47072
2017-08-14T13:56:08.254Z,11452
2017-08-14T13:57:20.544Z,11524
2017-08-14T13:58:33.109Z,12840
2017-08-14T13:59:45.706Z,11424
2017-08-14T14:00:58.279Z,46752
2017-08-14T14:02:10.899Z,36256
2017-08-14T14:03:22.569Z,14336
2017-08-14T14:04:34.841Z,43904
2017-08-14T14:05:46.504Z,18752
2017-08-14T14:06:59.082Z,16732
2017-08-14T14:08:11.369Z,28128
2017-08-14T14:09:23.633Z,22944
2017-08-14T14:10:35.873Z,18592
2017-08-14T14:11:48.151Z,16288
2017-08-14T14:13:00.754Z,17408
2017-08-14T14:14:13.360Z,19904
2017-08-14T14:15:25.061Z,22208
2017-08-14T14:16:37.431Z,23200
2017-08-14T14:17:49.719Z,23200
2017-08-14T14:19:01.768Z,23040
2017-08-14T14:20:13.780Z,20064
2017-08-14T14:21:26.058Z,17760
2017-08-14T14:22:38.084Z,15636
2017-08-14T14:23:49.775Z,12220
2017-08-14T14:25:02.405Z,11420
2017-08-14T14:26:15.041Z,11032
2017-08-14T14:27:27.597Z,10580
2017-08-14T14:28:39.593Z,10160
2017-08-14T14:29:51.579Z,9880
2017-08-14T14:31:04.151Z,9748
2017-08-14T14:32:16.082Z,9644
2017-08-14T14:33:28.073Z,9568
2017-08-14T14:34:40.701Z,9840
2017-08-14T14:35:52.990Z,10280
2017-08-14T14:37:05.623Z,10860
2017-08-14T14:38:18.186Z,11492
2017-08-14T14:39:30.483Z,11852
2017-08-14T14:40:42.836Z,11960
2017-08-14T14:41:55.091Z,11936
2017-08-14T14:43:07.668Z,12152
2017-08-14T14:44:19.358Z,12240
2017-08-14T14:45:31.676Z,11804
2017-08-14T14:46:44.297Z,11376
2017-08-14T14:47:56.569Z,10948
2017-08-14T14:49:08.869Z,10832
2017-08-14T14:50:21.143Z,11052
2017-08-14T14:51:33.813Z,11440
2017-08-14T14:52:46.381Z,11588
2017-08-14T14:53:58.717Z,11104
2017-08-14T14:55:11.305Z,11292
2017-08-14T14:56:23.932Z,10448
2017-08-14T14:57:36.235Z,9748
2017-08-14T14:58:48.467Z,8732
2017-08-14T15:00:00.819Z,8864
2017-08-14T15:01:12.809Z,9384
2017-08-14T15:02:25.118Z,9560
2017-08-14T15:03:37.667Z,9076
2017-08-14T15:04:50.253Z,8732
2017-08-14T15:06:02.556Z,8528
2017-08-14T15:07:15.127Z,8424
2017-08-14T15:08:27.434Z,8324
2017-08-14T15:09:39.785Z,8128
2017-08-14T15:10:52.390Z,8040
2017-08-14T15:12:04.963Z,8072
2017-08-14T15:13:17.549Z,8108
2017-08-14T15:14:29.879Z,7884
2017-08-14T15:15:42.224Z,7300
2017-08-14T15:16:54.851Z,6336
2017-08-14T15:18:07.471Z,5504
2017-08-14T15:19:19.740Z,4924
2017-08-14T15:20:32.613Z,4740
2017-08-14T15:21:45.189Z,4704
2017-08-14T15:22:57.857Z,4580
2017-08-14T15:24:10.433Z,4428
2017-08-14T15:25:22.416Z,4464
2017-08-14T15:26:34.723Z,4832
2017-08-14T15:27:47.069Z,5028
2017-08-14T15:28:59.382Z,5116
2017-08-14T15:30:11.691Z,5216
2017-08-14T15:31:23.970Z,5204
2017-08-14T15:32:36.541Z,5192
2017-08-14T15:33:48.553Z,5196
2017-08-14T15:35:01.159Z,5280
2017-08-14T15:36:13.746Z,5464
2017-08-14T15:37:25.381Z,5684
2017-08-14T15:38:37.919Z,5880
2017-08-14T15:39:49.831Z,5828
2017-08-14T15:41:02.515Z,5492
2017-08-14T15:42:14.709Z,4744
2017-08-14T15:43:26.762Z,4496
2017-08-14T15:44:39.101Z,4864
2017-08-14T15:45:51.729Z,4844
2017-08-14T15:47:04.024Z,4832
2017-08-14T15:48:16.316Z,4816
2017-08-14T15:49:28.916Z,4824
2017-08-14T15:50:41.543Z,4844
2017-08-14T15:51:53.907Z,4932
2017-08-14T15:53:06.497Z,5080
2017-08-14T15:54:18.483Z,5208
2017-08-14T15:55:30.773Z,5316
2017-08-14T15:56:43.365Z,5424
2017-08-14T15:57:55.930Z,5508
2017-08-14T15:59:08.226Z,5612
2017-08-14T16:00:20.830Z,5716
2017-08-14T16:01:32.870Z,5656
2017-08-14T16:02:45.091Z,5560
2017-08-14T16:03:57.684Z,5736
2017-08-14T16:05:10.324Z,6252
2017-08-14T16:06:22.592Z,7040
2017-08-14T16:07:35.201Z,7916